Flight Track Log - Related Links

Times and Time Zones

All times are in EDT time to prevent confusion due to time zone crossing. See the QXE2633 flight status page for this flight to view local times or setup timezone preferences in your user account.

Time Position Orientation Groundspeed Altitude Reporting Facility
EDT Latitude Longitude Course Direction KTS MPH feet Rate Location/Type
Wed 03:22:00 PM 46.8000 -114.6598 270° West  Level FlightAware Approximate
Wed 03:23:00 PM 46.7992 -114.7864 250° West  Level FlightAware Approximate
Wed 03:24:00 PM 46.7696 -114.8981 247° West  Level FlightAware Approximate
Wed 03:25:00 PM 46.7400 -115.0083 240° Southwest  Level FlightAware Approximate
Wed 03:26:00 PM 46.7075 -115.1171 255° West  Level FlightAware Approximate
Wed 03:27:00 PM 46.6940 -115.2353 250° West  Level Estimated
Wed 03:28:00 PM 46.6898 -115.3550 267° West  Level FlightAware Approximate
Wed 03:29:00 PM 46.6855 -115.4747 267° West  Level FlightAware Approximate
Wed 03:30:00 PM 46.6712 -115.5927 247° West  Level Estimated
Wed 03:31:00 PM 46.6371 -115.7017 246° West  Level FlightAware Approximate
Wed 03:32:00 PM 46.6230 -115.8196 248° West  Level Estimated
Wed 03:33:00 PM 46.5915 -115.9302 248° West  Level FlightAware Approximate
Wed 03:34:00 PM 46.5600 -116.0406 247° West  Level FlightAware Approximate
Wed 03:35:00 PM 46.5284 -116.1509 247° West  Level FlightAware Approximate
Wed 03:36:00 PM 46.4967 -116.2611 247° West  Level FlightAware Approximate
Wed 03:37:00 PM 46.4648 -116.3712 247° West  Level FlightAware Approximate
Wed 03:38:00 PM 46.4329 -116.4811 247° West  Level FlightAware Approximate
Wed 03:39:00 PM 46.4031 -116.5831 247° West  Level FlightAware Approximate
Wed 03:40:00 PM 46.3733 -116.6850 247° West  Level FlightAware Approximate
Wed 03:41:00 PM 46.3624 -116.7993 262° West  Level FlightAware Approximate
Wed 03:42:00 PM 46.3513 -116.9136 262° West  Level FlightAware Approximate
Wed 03:43:00 PM 46.3402 -117.0278 262° West  Level FlightAware Approximate
Wed 03:44:00 PM 46.3289 -117.1419 262° West  Level FlightAware Approximate
Wed 03:45:00 PM 46.3175 -117.2561 262° West  Level FlightAware Approximate
Wed 03:46:00 PM 46.3060 -117.3701 262° West  Level FlightAware Approximate
Wed 03:47:00 PM 46.2944 -117.4841 262° West  Level FlightAware Approximate
Wed 03:48:00 PM 46.2827 -117.5981 262° West  Level FlightAware Approximate
Wed 03:49:00 PM 46.2709 -117.7120 261° West  Level FlightAware Approximate
Wed 03:50:00 PM 46.2590 -117.8259 261° West  Level FlightAware Approximate
Wed 03:51:00 PM 46.2469 -117.9397 261° West  Level FlightAware Approximate
Wed 03:52:00 PM 46.2347 -118.0535 261° West  Level FlightAware Approximate
Wed 03:53:00 PM 46.2157 -118.1721 256° West  Level FlightAware Approximate
Wed 03:54:00 PM 46.1968 -118.2838 256° West  Level FlightAware Approximate
Wed 03:55:00 PM 46.1779 -118.3955 256° West  Level FlightAware Approximate
Wed 03:56:00 PM 46.1588 -118.5072 256° West  Level FlightAware Approximate
Wed 03:57:00 PM 46.1396 -118.6187 256° West  Level FlightAware Approximate
Wed 03:58:00 PM 46.1203 -118.7302 256° West  Level FlightAware Approximate
Wed 03:59:00 PM 46.1009 -118.8416 256° West  Level FlightAware Approximate
Wed 04:00:00 PM 46.0814 -118.9529 256° West  Level FlightAware Approximate
Wed 04:01:00 PM 46.0618 -119.0641 256° West  Level FlightAware Approximate
Wed 04:02:00 PM 46.0421 -119.1753 256° West  Level FlightAware Approximate
Wed 04:03:00 PM 46.0223 -119.2864 256° West  Level FlightAware Approximate
Wed 04:04:00 PM 46.0018 -119.3971 255° West  Level FlightAware Approximate
Wed 04:05:00 PM 45.9812 -119.5078 255° West  Level FlightAware Approximate
Wed 04:06:00 PM 45.9604 -119.6184 255° West  Level FlightAware Approximate
Wed 04:07:00 PM 45.9396 -119.7289 255° West  Level FlightAware Approximate
Wed 04:08:00 PM 45.9185 -119.8403 255° West  Level FlightAware Approximate
Wed 04:09:00 PM 45.8982 -119.9519 255° West  Level FlightAware Approximate
Wed 04:10:00 PM 45.8778 -120.0635 255° West  Level FlightAware Approximate
Wed 04:11:00 PM 45.8573 -120.1750 255° West  Level FlightAware Approximate
Wed 04:12:00 PM 45.8367 -120.2865 255° West  Level FlightAware Approximate
Wed 04:13:00 PM 45.8160 -120.3978 255° West  Level FlightAware Approximate
Wed 04:14:00 PM 45.7944 -120.5087 252° West  Level FlightAware Approximate
Wed 04:15:00 PM 45.7700 -120.6184 252° West  Level FlightAware Approximate
Wed 04:16:00 PM 45.7464 -120.7284 253° West  Level FlightAware Approximate
Wed 04:17:00 PM 45.7228 -120.8384 253° West  Level FlightAware Approximate
Wed 04:18:00 PM 45.7013 -120.9492 255° West  Level FlightAware Approximate
Wed 04:19:00 PM 45.6805 -121.0602 255° West  Level FlightAware Approximate
Wed 04:20:00 PM 45.6592 -121.1710 254° West  Level FlightAware Approximate
Wed 04:21:00 PM 45.6372 -121.2815 254° West  Level FlightAware Approximate
Wed 04:22:00 PM 45.6151 -121.3918 254° West  Level FlightAware Approximate
Wed 04:23:00 PM 45.5925 -121.5020 253° West  Level FlightAware Approximate
Wed 04:24:00 PM 45.5690 -121.6117 253° West  Level FlightAware Approximate
Wed 04:25:00 PM 45.5485 -121.7219 248° West  Level FlightAware Approximate
Wed 04:26:00 PM 45.5182 -121.8280 248° West  Level FlightAware Approximate
Wed 04:27:00 PM 45.5062 -121.9370 283° West  Level FlightAware Approximate
Wed 04:28:00 PM 45.5212 -122.0495 277° West  Level FlightAware Approximate
Wed 04:29:00 PM 45.5315 -122.1631 277° West  Level FlightAware Approximate
Wed 04:30:00 PM 45.5500 -122.2722 270° West  Level FlightAware Approximate
Wed 04:31:00 PM 45.5667 -122.3745 270° West  Level FlightAware Approximate
Wed 04:32:00 PM 45.5698 -122.4888 282° West  Level FlightAware Approximate
Wed 04:33:00 PM 45.5833 -122.5833 282° West  Level FlightAware Approximate
Wed 04:34:00 PM 45.5887 -122.5969 282° West  Level Estimated
Wed 04:35:00 PM 45.5887 -122.5969 282° West  Level Estimated
Wed 04:36:00 PM 45.5887 -122.5969 282° West  Level Estimated
Wed 04:37:00 PM 45.5887 -122.5969 282° West  Level Estimated
Wed 04:38:00 PM 45.5887 -122.5969 282° West  Level Estimated
Wed 04:39:00 PM 45.5887 -122.5969 282° West  Level Estimated
Wed 04:40:00 PM 45.5887 -122.5969 282° West  Level Estimated

Login

Don't have an account? Register now (free) for customized features, flight alerts, and more!